Ooltewah, Tennessee
Current Conditions -  °F | °C
As of 2:53 AM on Thursday 27 Nov 2014 (Local Time) from KCHA Reporting Station
Overcast Overcast  
Wind Chill: 37°   Ceiling: 3900
Heat Index: 43°   Visibility: 10mi
Dew Point: 31°   Wind: 12mph
Humidity: 62%   Direction: 280°W
Pressure: 30.1"   Gusts: 21mph
Location:  35.08°N, 85.06°W
Report Text: KCHA 270753Z AUTO 28010G18KT 10SM OVC039 06/M01 A3010 RMK AO2 SLP194 T00611006
Loading
Personal Weather Stations






























Interactive Weather Map New forecast layout! Learn more

10-Day Weather Forecast

Advertisements
Track Severe Weather on mobile